createdAt,value
2017-10-17T00:02:34.943Z,13.16
2017-10-17T00:17:37.964Z,12.95
2017-10-17T00:32:38.784Z,12.73
2017-10-17T00:47:35.346Z,12.59
2017-10-17T01:02:35.262Z,12.45
2017-10-17T01:17:34.792Z,12.31
2017-10-17T01:32:34.659Z,12.17
2017-10-17T01:47:34.609Z,12.07
2017-10-17T02:02:45.421Z,12.03
2017-10-17T02:17:34.539Z,11.93
2017-10-17T02:32:34.510Z,11.82
2017-10-17T02:47:51.248Z,11.71
2017-10-17T03:02:36.642Z,11.58
2017-10-17T03:17:34.947Z,11.46
2017-10-17T03:32:34.911Z,11.41
2017-10-17T03:47:49.811Z,11.36
2017-10-17T04:02:47.029Z,11.25
2017-10-17T04:17:39.929Z,11.18
2017-10-17T04:32:41.001Z,11.18
2017-10-17T04:47:49.142Z,11.32
2017-10-17T05:02:54.001Z,11.34
2017-10-17T05:17:53.915Z,11.68
2017-10-17T05:32:34.301Z,12.98
2017-10-17T05:47:44.704Z,15.56
2017-10-17T06:02:34.677Z,17.31
2017-10-17T06:17:34.644Z,18.94
2017-10-17T06:32:36.554Z,19.88
2017-10-17T06:47:35.023Z,20.63
2017-10-17T07:02:34.887Z,21.19
2017-10-17T07:17:34.846Z,22.04
2017-10-17T07:32:35.899Z,22.12
2017-10-17T07:47:35.385Z,22.75
2017-10-17T08:02:35.260Z,23.40
2017-10-17T08:17:35.137Z,24.33
2017-10-17T08:32:35.179Z,24.59
2017-10-17T08:47:34.508Z,25.94
2017-10-17T09:02:34.536Z,27.27
2017-10-17T09:17:34.539Z,26.95
2017-10-17T09:32:33.912Z,27.32
2017-10-17T09:47:34.844Z,27.78
2017-10-17T10:02:34.828Z,27.36
2017-10-17T10:17:34.732Z,28.00
2017-10-17T10:32:35.743Z,27.47
2017-10-17T10:47:35.067Z,27.22
2017-10-17T11:02:35.051Z,27.20
2017-10-17T11:17:35.100Z,27.25
2017-10-17T11:32:37.095Z,27.20
2017-10-17T11:47:34.387Z,26.73
2017-10-17T12:02:34.437Z,26.69
2017-10-17T12:17:35.416Z,26.56
2017-10-17T12:32:34.371Z,26.39
2017-10-17T12:47:34.674Z,25.83
2017-10-17T13:02:34.626Z,25.44
2017-10-17T13:17:34.695Z,25.14
2017-10-17T13:32:34.651Z,24.92
2017-10-17T13:47:35.028Z,24.78
2017-10-17T14:02:34.898Z,24.53
2017-10-17T14:17:34.939Z,24.19
2017-10-17T14:32:35.556Z,23.80
2017-10-17T14:47:34.211Z,23.32
2017-10-17T15:02:35.279Z,22.69
2017-10-17T15:17:35.203Z,22.11
2017-10-17T15:32:35.194Z,21.56
2017-10-17T15:47:34.771Z,21.08
2017-10-17T16:02:40.499Z,20.61
2017-10-17T16:17:34.223Z,20.03
2017-10-17T16:47:37.064Z,19.08
2017-10-17T17:02:36.875Z,18.68
2017-10-17T17:17:36.579Z,18.47
2017-10-17T17:47:37.808Z,18.09
2017-10-17T18:02:35.230Z,17.87
2017-10-17T18:17:35.929Z,17.68
2017-10-17T18:32:37.145Z,17.43
2017-10-17T18:47:34.552Z,17.79
2017-10-17T19:02:34.440Z,17.34
2017-10-17T19:17:34.458Z,17.02
2017-10-17T19:32:34.374Z,16.75
2017-10-17T19:47:34.755Z,16.46
2017-10-17T20:02:34.757Z,16.25
2017-10-17T20:17:34.856Z,15.96
2017-10-17T20:32:34.278Z,15.79
2017-10-17T20:47:35.751Z,15.67
2017-10-17T21:02:35.042Z,15.53
2017-10-17T21:17:35.088Z,15.34
2017-10-17T21:32:34.975Z,15.19
2017-10-17T21:47:35.847Z,15.01
2017-10-17T22:02:33.974Z,14.84
2017-10-17T22:17:34.377Z,14.68
2017-10-17T22:32:34.783Z,14.52
2017-10-17T22:47:34.638Z,14.39
2017-10-17T23:02:34.617Z,14.24
2017-10-17T23:17:46.056Z,14.08
2017-10-17T23:32:34.069Z,13.96
2017-10-17T23:47:35.937Z,13.82
